sensor_id;sensor_type;location;lat;lon;timestamp;P1;durP1;ratioP1;P2;durP2;ratioP2
34585;SDS011;20816;50.950;11.108;2023-03-24T00:00:15;3.13;;;1.27;;
34585;SDS011;20816;50.950;11.108;2023-03-24T00:02:43;1.30;;;0.90;;
34585;SDS011;20816;50.950;11.108;2023-03-24T00:05:15;1.97;;;1.20;;
34585;SDS011;20816;50.950;11.108;2023-03-24T00:07:46;1.13;;;1.00;;
34585;SDS011;20816;50.950;11.108;2023-03-24T00:10:20;1.37;;;1.17;;
34585;SDS011;20816;50.950;11.108;2023-03-24T00:12:48;3.63;;;1.17;;
34585;SDS011;20816;50.950;11.108;2023-03-24T00:15:16;2.33;;;1.47;;
34585;SDS011;20816;50.950;11.108;2023-03-24T00:17:45;1.70;;;1.10;;
34585;SDS011;20816;50.950;11.108;2023-03-24T00:20:16;1.77;;;1.00;;
34585;SDS011;20816;50.950;11.108;2023-03-24T00:22:47;2.13;;;1.10;;
34585;SDS011;20816;50.950;11.108;2023-03-24T00:25:16;1.40;;;1.30;;
34585;SDS011;20816;50.950;11.108;2023-03-24T00:27:45;1.60;;;1.03;;
34585;SDS011;20816;50.950;11.108;2023-03-24T00:30:17;1.63;;;1.23;;
34585;SDS011;20816;50.950;11.108;2023-03-24T00:32:44;1.70;;;1.10;;
34585;SDS011;20816;50.950;11.108;2023-03-24T00:35:12;2.27;;;1.67;;
34585;SDS011;20816;50.950;11.108;2023-03-24T00:37:42;1.90;;;1.10;;
34585;SDS011;20816;50.950;11.108;2023-03-24T00:40:14;2.03;;;1.30;;
34585;SDS011;20816;50.950;11.108;2023-03-24T00:42:43;5.93;;;1.40;;
34585;SDS011;20816;50.950;11.108;2023-03-24T00:45:12;1.97;;;1.40;;
34585;SDS011;20816;50.950;11.108;2023-03-24T00:47:40;3.63;;;1.60;;
34585;SDS011;20816;50.950;11.108;2023-03-24T00:50:12;3.00;;;1.53;;
34585;SDS011;20816;50.950;11.108;2023-03-24T00:52:41;1.30;;;0.90;;
34585;SDS011;20816;50.950;11.108;2023-03-24T00:55:10;1.33;;;1.10;;
34585;SDS011;20816;50.950;11.108;2023-03-24T00:57:42;3.57;;;1.00;;
34585;SDS011;20816;50.950;11.108;2023-03-24T01:00:23;2.07;;;1.20;;
34585;SDS011;20816;50.950;11.108;2023-03-24T01:02:52;1.60;;;1.07;;
34585;SDS011;20816;50.950;11.108;2023-03-24T01:05:26;1.80;;;1.20;;
34585;SDS011;20816;50.950;11.108;2023-03-24T01:07:55;2.80;;;1.57;;
34585;SDS011;20816;50.950;11.108;2023-03-24T01:10:23;1.93;;;1.43;;
34585;SDS011;20816;50.950;11.108;2023-03-24T01:12:54;1.73;;;1.23;;
34585;SDS011;20816;50.950;11.108;2023-03-24T01:15:24;1.57;;;1.20;;
34585;SDS011;20816;50.950;11.108;2023-03-24T01:17:55;0.80;;;0.80;;
34585;SDS011;20816;50.950;11.108;2023-03-24T01:20:22;8.37;;;1.30;;
34585;SDS011;20816;50.950;11.108;2023-03-24T01:22:50;1.43;;;0.80;;
34585;SDS011;20816;50.950;11.108;2023-03-24T01:25:18;2.17;;;1.67;;
34585;SDS011;20816;50.950;11.108;2023-03-24T01:27:47;1.20;;;1.00;;
34585;SDS011;20816;50.950;11.108;2023-03-24T01:30:17;0.97;;;0.80;;
34585;SDS011;20816;50.950;11.108;2023-03-24T01:32:46;1.00;;;0.70;;
34585;SDS011;20816;50.950;11.108;2023-03-24T01:35:13;3.00;;;0.90;;
34585;SDS011;20816;50.950;11.108;2023-03-24T01:37:40;1.07;;;0.90;;
34585;SDS011;20816;50.950;11.108;2023-03-24T01:40:18;2.23;;;1.10;;
34585;SDS011;20816;50.950;11.108;2023-03-24T01:42:47;2.27;;;1.00;;
34585;SDS011;20816;50.950;11.108;2023-03-24T01:48:10;1.73;;;0.90;;
34585;SDS011;20816;50.950;11.108;2023-03-24T01:50:41;0.80;;;0.80;;
34585;SDS011;20816;50.950;11.108;2023-03-24T01:53:10;1.57;;;1.20;;
34585;SDS011;20816;50.950;11.108;2023-03-24T01:55:37;1.63;;;0.93;;
34585;SDS011;20816;50.950;11.108;2023-03-24T01:58:05;3.27;;;1.23;;
34585;SDS011;20816;50.950;11.108;2023-03-24T02:00:32;1.80;;;0.90;;
34585;SDS011;20816;50.950;11.108;2023-03-24T02:03:00;1.97;;;1.10;;
34585;SDS011;20816;50.950;11.108;2023-03-24T02:05:34;1.30;;;1.20;;
34585;SDS011;20816;50.950;11.108;2023-03-24T02:10:57;2.33;;;1.30;;
34585;SDS011;20816;50.950;11.108;2023-03-24T02:13:25;1.40;;;1.30;;
34585;SDS011;20816;50.950;11.108;2023-03-24T02:18:45;5.47;;;1.70;;
34585;SDS011;20816;50.950;11.108;2023-03-24T02:21:29;2.10;;;1.40;;
34585;SDS011;20816;50.950;11.108;2023-03-24T02:30:05;2.70;;;1.30;;
34585;SDS011;20816;50.950;11.108;2023-03-24T02:46:46;2.17;;;1.33;;
34585;SDS011;20816;50.950;11.108;2023-03-24T02:49:25;3.77;;;1.67;;
34585;SDS011;20816;50.950;11.108;2023-03-24T02:52:06;2.67;;;1.90;;
34585;SDS011;20816;50.950;11.108;2023-03-24T03:03:04;3.27;;;2.03;;
34585;SDS011;20816;50.950;11.108;2023-03-24T03:05:38;2.30;;;1.70;;
34585;SDS011;20816;50.950;11.108;2023-03-24T03:08:11;2.13;;;1.37;;
34585;SDS011;20816;50.950;11.108;2023-03-24T03:10:43;2.17;;;1.63;;
34585;SDS011;20816;50.950;11.108;2023-03-24T03:14:00;2.27;;;1.57;;
34585;SDS011;20816;50.950;11.108;2023-03-24T03:16:16;2.03;;;1.53;;
34585;SDS011;20816;50.950;11.108;2023-03-24T03:18:53;1.57;;;1.13;;
34585;SDS011;20816;50.950;11.108;2023-03-24T03:21:24;1.47;;;1.10;;
34585;SDS011;20816;50.950;11.108;2023-03-24T03:23:55;1.93;;;1.60;;
34585;SDS011;20816;50.950;11.108;2023-03-24T03:26:28;2.47;;;1.73;;
34585;SDS011;20816;50.950;11.108;2023-03-24T03:28:59;2.97;;;1.60;;
34585;SDS011;20816;50.950;11.108;2023-03-24T03:31:35;1.70;;;1.30;;
34585;SDS011;20816;50.950;11.108;2023-03-24T03:34:18;1.90;;;1.43;;
34585;SDS011;20816;50.950;11.108;2023-03-24T03:36:59;4.20;;;1.13;;
34585;SDS011;20816;50.950;11.108;2023-03-24T03:39:32;0.70;;;0.70;;
34585;SDS011;20816;50.950;11.108;2023-03-24T03:42:02;2.23;;;1.40;;
34585;SDS011;20816;50.950;11.108;2023-03-24T03:44:32;1.53;;;1.13;;
34585;SDS011;20816;50.950;11.108;2023-03-24T03:46:58;3.50;;;1.20;;
34585;SDS011;20816;50.950;11.108;2023-03-24T03:49:25;1.27;;;0.93;;
34585;SDS011;20816;50.950;11.108;2023-03-24T03:51:52;1.93;;;1.00;;
34585;SDS011;20816;50.950;11.108;2023-03-24T03:54:20;1.50;;;0.90;;
34585;SDS011;20816;50.950;11.108;2023-03-24T03:56:50;0.97;;;0.77;;
34585;SDS011;20816;50.950;11.108;2023-03-24T03:59:25;3.90;;;1.30;;
34585;SDS011;20816;50.950;11.108;2023-03-24T04:01:53;1.53;;;0.97;;
34585;SDS011;20816;50.950;11.108;2023-03-24T04:04:35;4.30;;;1.03;;
34585;SDS011;20816;50.950;11.108;2023-03-24T04:16:00;1.80;;;0.90;;
34585;SDS011;20816;50.950;11.108;2023-03-24T04:21:32;1.83;;;1.07;;
34585;SDS011;20816;50.950;11.108;2023-03-24T04:30:04;1.90;;;0.80;;
34585;SDS011;20816;50.950;11.108;2023-03-24T04:35:36;1.50;;;1.03;;
34585;SDS011;20816;50.950;11.108;2023-03-24T04:38:07;1.47;;;1.17;;
34585;SDS011;20816;50.950;11.108;2023-03-24T04:40:38;3.33;;;1.27;;
34585;SDS011;20816;50.950;11.108;2023-03-24T04:43:08;1.33;;;1.03;;
34585;SDS011;20816;50.950;11.108;2023-03-24T04:45:38;4.47;;;0.93;;
34585;SDS011;20816;50.950;11.108;2023-03-24T04:48:07;2.50;;;1.10;;
34585;SDS011;20816;50.950;11.108;2023-03-24T04:50:39;2.23;;;1.40;;
34585;SDS011;20816;50.950;11.108;2023-03-24T04:53:08;1.73;;;1.03;;
34585;SDS011;20816;50.950;11.108;2023-03-24T04:58:16;2.30;;;0.80;;
34585;SDS011;20816;50.950;11.108;2023-03-24T05:00:44;3.17;;;1.00;;
34585;SDS011;20816;50.950;11.108;2023-03-24T05:03:13;2.77;;;1.37;;
34585;SDS011;20816;50.950;11.108;2023-03-24T05:05:41;2.10;;;0.90;;
34585;SDS011;20816;50.950;11.108;2023-03-24T05:08:09;1.27;;;1.13;;
34585;SDS011;20816;50.950;11.108;2023-03-24T05:10:36;1.90;;;1.20;;
34585;SDS011;20816;50.950;11.108;2023-03-24T05:13:03;2.57;;;1.03;;
34585;SDS011;20816;50.950;11.108;2023-03-24T05:15:35;1.60;;;1.10;;
34585;SDS011;20816;50.950;11.108;2023-03-24T05:18:02;2.53;;;1.20;;
34585;SDS011;20816;50.950;11.108;2023-03-24T05:20:30;1.70;;;1.23;;
34585;SDS011;20816;50.950;11.108;2023-03-24T05:22:56;2.33;;;1.20;;
34585;SDS011;20816;50.950;11.108;2023-03-24T05:25:23;3.63;;;1.23;;
34585;SDS011;20816;50.950;11.108;2023-03-24T05:27:50;2.77;;;1.20;;
34585;SDS011;20816;50.950;11.108;2023-03-24T05:30:21;1.67;;;0.70;;
34585;SDS011;20816;50.950;11.108;2023-03-24T05:32:48;1.73;;;1.47;;
34585;SDS011;20816;50.950;11.108;2023-03-24T05:35:14;3.53;;;2.10;;
34585;SDS011;20816;50.950;11.108;2023-03-24T05:37:41;2.73;;;1.13;;
34585;SDS011;20816;50.950;11.108;2023-03-24T05:40:08;2.30;;;1.17;;
34585;SDS011;20816;50.950;11.108;2023-03-24T05:42:35;1.40;;;1.03;;
34585;SDS011;20816;50.950;11.108;2023-03-24T05:45:05;2.63;;;1.80;;
34585;SDS011;20816;50.950;11.108;2023-03-24T05:47:32;1.60;;;1.07;;
34585;SDS011;20816;50.950;11.108;2023-03-24T05:49:59;3.60;;;1.10;;
34585;SDS011;20816;50.950;11.108;2023-03-24T05:52:26;1.23;;;1.03;;
34585;SDS011;20816;50.950;11.108;2023-03-24T05:54:54;1.13;;;1.00;;
34585;SDS011;20816;50.950;11.108;2023-03-24T05:57:21;2.30;;;1.10;;
34585;SDS011;20816;50.950;11.108;2023-03-24T05:59:50;1.40;;;1.10;;
34585;SDS011;20816;50.950;11.108;2023-03-24T06:02:17;1.67;;;1.10;;
34585;SDS011;20816;50.950;11.108;2023-03-24T06:04:43;1.63;;;0.93;;
34585;SDS011;20816;50.950;11.108;2023-03-24T06:07:12;4.77;;;1.50;;
34585;SDS011;20816;50.950;11.108;2023-03-24T06:09:39;1.83;;;1.10;;
34585;SDS011;20816;50.950;11.108;2023-03-24T06:12:12;2.43;;;1.17;;
34585;SDS011;20816;50.950;11.108;2023-03-24T06:14:41;2.80;;;0.90;;
34585;SDS011;20816;50.950;11.108;2023-03-24T06:17:08;1.73;;;1.10;;
34585;SDS011;20816;50.950;11.108;2023-03-24T06:19:43;1.67;;;1.03;;
34585;SDS011;20816;50.950;11.108;2023-03-24T06:22:15;1.27;;;1.07;;
34585;SDS011;20816;50.950;11.108;2023-03-24T06:24:43;1.57;;;1.23;;
34585;SDS011;20816;50.950;11.108;2023-03-24T06:27:10;1.67;;;1.03;;
34585;SDS011;20816;50.950;11.108;2023-03-24T06:29:37;1.40;;;0.93;;
34585;SDS011;20816;50.950;11.108;2023-03-24T06:32:05;1.30;;;1.20;;
34585;SDS011;20816;50.950;11.108;2023-03-24T06:34:31;5.30;;;1.57;;
34585;SDS011;20816;50.950;11.108;2023-03-24T06:36:58;3.90;;;1.10;;
34585;SDS011;20816;50.950;11.108;2023-03-24T06:39:25;2.73;;;1.40;;
34585;SDS011;20816;50.950;11.108;2023-03-24T06:41:51;1.03;;;0.80;;
34585;SDS011;20816;50.950;11.108;2023-03-24T06:44:18;1.10;;;0.97;;
34585;SDS011;20816;50.950;11.108;2023-03-24T06:46:45;1.10;;;0.80;;
34585;SDS011;20816;50.950;11.108;2023-03-24T06:49:12;1.73;;;1.27;;
34585;SDS011;20816;50.950;11.108;2023-03-24T06:51:39;1.70;;;1.00;;
34585;SDS011;20816;50.950;11.108;2023-03-24T06:54:05;1.20;;;0.80;;
34585;SDS011;20816;50.950;11.108;2023-03-24T06:56:32;1.17;;;0.77;;
34585;SDS011;20816;50.950;11.108;2023-03-24T06:59:00;2.50;;;1.20;;
34585;SDS011;20816;50.950;11.108;2023-03-24T07:01:26;1.10;;;0.70;;
34585;SDS011;20816;50.950;11.108;2023-03-24T07:03:53;0.93;;;0.80;;
34585;SDS011;20816;50.950;11.108;2023-03-24T07:06:29;0.90;;;0.80;;
34585;SDS011;20816;50.950;11.108;2023-03-24T07:08:56;1.10;;;0.70;;
34585;SDS011;20816;50.950;11.108;2023-03-24T07:11:24;1.40;;;0.90;;
34585;SDS011;20816;50.950;11.108;2023-03-24T07:13:53;1.40;;;0.60;;
34585;SDS011;20816;50.950;11.108;2023-03-24T07:16:19;0.80;;;0.60;;
34585;SDS011;20816;50.950;11.108;2023-03-24T07:18:47;1.80;;;0.80;;
34585;SDS011;20816;50.950;11.108;2023-03-24T07:21:14;1.63;;;0.80;;
34585;SDS011;20816;50.950;11.108;2023-03-24T07:23:40;0.67;;;0.67;;
34585;SDS011;20816;50.950;11.108;2023-03-24T07:26:07;1.43;;;1.00;;
34585;SDS011;20816;50.950;11.108;2023-03-24T07:28:34;0.60;;;0.53;;
34585;SDS011;20816;50.950;11.108;2023-03-24T07:31:01;1.57;;;0.60;;
34585;SDS011;20816;50.950;11.108;2023-03-24T07:33:30;0.73;;;0.60;;
34585;SDS011;20816;50.950;11.108;2023-03-24T07:35:56;1.03;;;0.57;;
34585;SDS011;20816;50.950;11.108;2023-03-24T07:38:24;0.60;;;0.60;;
34585;SDS011;20816;50.950;11.108;2023-03-24T07:40:52;0.77;;;0.50;;
34585;SDS011;20816;50.950;11.108;2023-03-24T07:43:19;1.33;;;0.90;;
34585;SDS011;20816;50.950;11.108;2023-03-24T07:45:47;1.37;;;0.67;;
34585;SDS011;20816;50.950;11.108;2023-03-24T07:48:17;1.80;;;0.30;;
34585;SDS011;20816;50.950;11.108;2023-03-24T07:50:44;1.50;;;0.50;;
34585;SDS011;20816;50.950;11.108;2023-03-24T07:53:12;1.10;;;0.50;;
34585;SDS011;20816;50.950;11.108;2023-03-24T07:55:40;2.63;;;0.77;;
34585;SDS011;20816;50.950;11.108;2023-03-24T07:58:06;0.73;;;0.30;;
34585;SDS011;20816;50.950;11.108;2023-03-24T08:00:33;0.70;;;0.40;;
34585;SDS011;20816;50.950;11.108;2023-03-24T08:03:00;0.80;;;0.70;;
34585;SDS011;20816;50.950;11.108;2023-03-24T08:05:28;1.90;;;0.43;;
34585;SDS011;20816;50.950;11.108;2023-03-24T08:07:56;0.30;;;0.30;;
34585;SDS011;20816;50.950;11.108;2023-03-24T08:10:24;0.73;;;0.50;;
34585;SDS011;20816;50.950;11.108;2023-03-24T08:12:55;0.67;;;0.40;;
34585;SDS011;20816;50.950;11.108;2023-03-24T08:15:22;0.40;;;0.30;;
34585;SDS011;20816;50.950;11.108;2023-03-24T08:17:50;0.43;;;0.43;;
34585;SDS011;20816;50.950;11.108;2023-03-24T08:20:17;0.70;;;0.50;;
34585;SDS011;20816;50.950;11.108;2023-03-24T08:22:49;0.50;;;0.50;;
34585;SDS011;20816;50.950;11.108;2023-03-24T08:25:21;0.40;;;0.40;;
34585;SDS011;20816;50.950;11.108;2023-03-24T08:27:49;0.90;;;0.60;;
34585;SDS011;20816;50.950;11.108;2023-03-24T08:30:21;1.33;;;0.67;;
34585;SDS011;20816;50.950;11.108;2023-03-24T08:32:50;0.60;;;0.60;;
34585;SDS011;20816;50.950;11.108;2023-03-24T08:35:23;1.03;;;0.60;;
34585;SDS011;20816;50.950;11.108;2023-03-24T08:37:51;1.90;;;0.40;;
34585;SDS011;20816;50.950;11.108;2023-03-24T08:40:20;1.33;;;0.80;;
34585;SDS011;20816;50.950;11.108;2023-03-24T08:42:50;1.33;;;0.60;;
34585;SDS011;20816;50.950;11.108;2023-03-24T08:45:25;1.07;;;0.63;;
34585;SDS011;20816;50.950;11.108;2023-03-24T08:47:53;0.93;;;0.63;;
34585;SDS011;20816;50.950;11.108;2023-03-24T08:50:23;1.20;;;1.10;;
34585;SDS011;20816;50.950;11.108;2023-03-24T08:52:55;0.70;;;0.50;;
34585;SDS011;20816;50.950;11.108;2023-03-24T08:55:22;0.70;;;0.40;;
34585;SDS011;20816;50.950;11.108;2023-03-24T08:57:49;0.70;;;0.50;;
34585;SDS011;20816;50.950;11.108;2023-03-24T09:00:17;0.83;;;0.40;;
34585;SDS011;20816;50.950;11.108;2023-03-24T09:02:45;0.40;;;0.40;;
34585;SDS011;20816;50.950;11.108;2023-03-24T09:05:14;0.40;;;0.37;;
34585;SDS011;20816;50.950;11.108;2023-03-24T09:07:49;1.00;;;0.77;;
34585;SDS011;20816;50.950;11.108;2023-03-24T09:10:18;0.47;;;0.40;;
34585;SDS011;20816;50.950;11.108;2023-03-24T09:12:50;0.60;;;0.50;;
34585;SDS011;20816;50.950;11.108;2023-03-24T09:15:19;0.75;;;0.50;;
34585;SDS011;20816;50.950;11.108;2023-03-24T09:17:45;0.60;;;0.30;;
34585;SDS011;20816;50.950;11.108;2023-03-24T09:20:13;0.67;;;0.50;;
34585;SDS011;20816;50.950;11.108;2023-03-24T09:22:42;0.93;;;0.50;;
34585;SDS011;20816;50.950;11.108;2023-03-24T09:25:12;1.27;;;0.40;;
34585;SDS011;20816;50.950;11.108;2023-03-24T09:27:40;0.70;;;0.47;;
34585;SDS011;20816;50.950;11.108;2023-03-24T09:30:08;0.73;;;0.50;;
34585;SDS011;20816;50.950;11.108;2023-03-24T09:32:35;0.50;;;0.40;;
34585;SDS011;20816;50.950;11.108;2023-03-24T09:35:03;0.60;;;0.50;;
34585;SDS011;20816;50.950;11.108;2023-03-24T09:37:34;2.80;;;0.77;;
34585;SDS011;20816;50.950;11.108;2023-03-24T09:40:02;0.70;;;0.47;;
34585;SDS011;20816;50.950;11.108;2023-03-24T09:42:34;0.40;;;0.40;;
34585;SDS011;20816;50.950;11.108;2023-03-24T09:45:06;0.45;;;0.40;;
34585;SDS011;20816;50.950;11.108;2023-03-24T09:47:41;0.30;;;0.30;;
34585;SDS011;20816;50.950;11.108;2023-03-24T09:50:19;0.43;;;0.30;;
34585;SDS011;20816;50.950;11.108;2023-03-24T09:52:53;0.50;;;0.47;;
34585;SDS011;20816;50.950;11.108;2023-03-24T09:55:25;0.70;;;0.40;;
34585;SDS011;20816;50.950;11.108;2023-03-24T09:57:58;0.65;;;0.40;;
34585;SDS011;20816;50.950;11.108;2023-03-24T10:00:30;0.40;;;0.40;;
34585;SDS011;20816;50.950;11.108;2023-03-24T10:02:59;0.40;;;0.20;;
34585;SDS011;20816;50.950;11.108;2023-03-24T10:05:39;0.43;;;0.40;;
34585;SDS011;20816;50.950;11.108;2023-03-24T10:08:20;0.43;;;0.30;;
34585;SDS011;20816;50.950;11.108;2023-03-24T10:11:03;0.63;;;0.45;;
34585;SDS011;20816;50.950;11.108;2023-03-24T10:16:59;0.30;;;0.30;;
34585;SDS011;20816;50.950;11.108;2023-03-24T10:19:43;0.30;;;0.30;;
34585;SDS011;20816;50.950;11.108;2023-03-24T10:31:17;0.52;;;0.30;;
34585;SDS011;20816;50.950;11.108;2023-03-24T10:33:51;3.22;;;0.63;;
34585;SDS011;20816;50.950;11.108;2023-03-24T10:36:19;1.98;;;0.57;;
34585;SDS011;20816;50.950;11.108;2023-03-24T10:38:49;0.20;;;0.20;;
34585;SDS011;20816;50.950;11.108;2023-03-24T10:41:20;0.30;;;0.20;;
34585;SDS011;20816;50.950;11.108;2023-03-24T10:43:51;0.50;;;0.20;;
34585;SDS011;20816;50.950;11.108;2023-03-24T10:46:21;1.47;;;0.40;;
34585;SDS011;20816;50.950;11.108;2023-03-24T10:48:54;0.53;;;0.30;;
34585;SDS011;20816;50.950;11.108;2023-03-24T10:51:37;0.53;;;0.20;;
34585;SDS011;20816;50.950;11.108;2023-03-24T10:54:22;3.53;;;0.60;;
34585;SDS011;20816;50.950;11.108;2023-03-24T10:59:27;0.30;;;0.30;;
34585;SDS011;20816;50.950;11.108;2023-03-24T11:02:28;0.87;;;0.47;;
34585;SDS011;20816;50.950;11.108;2023-03-24T11:05:01;0.50;;;0.50;;
34585;SDS011;20816;50.950;11.108;2023-03-24T11:07:49;0.20;;;0.20;;
34585;SDS011;20816;50.950;11.108;2023-03-24T11:10:17;2.67;;;0.50;;
34585;SDS011;20816;50.950;11.108;2023-03-24T11:15:20;2.40;;;0.37;;
34585;SDS011;20816;50.950;11.108;2023-03-24T11:17:58;0.80;;;0.60;;
34585;SDS011;20816;50.950;11.108;2023-03-24T11:23:49;0.70;;;0.50;;
34585;SDS011;20816;50.950;11.108;2023-03-24T11:26:18;1.37;;;0.50;;
34585;SDS011;20816;50.950;11.108;2023-03-24T11:28:46;0.63;;;0.63;;
34585;SDS011;20816;50.950;11.108;2023-03-24T11:31:32;1.53;;;0.50;;
34585;SDS011;20816;50.950;11.108;2023-03-24T11:34:08;0.30;;;0.30;;
34585;SDS011;20816;50.950;11.108;2023-03-24T11:37:00;0.77;;;0.50;;
34585;SDS011;20816;50.950;11.108;2023-03-24T11:39:31;0.67;;;0.40;;
34585;SDS011;20816;50.950;11.108;2023-03-24T11:44:51;1.03;;;0.63;;
34585;SDS011;20816;50.950;11.108;2023-03-24T11:52:38;1.07;;;0.57;;
34585;SDS011;20816;50.950;11.108;2023-03-24T11:55:15;3.73;;;0.87;;
34585;SDS011;20816;50.950;11.108;2023-03-24T11:57:51;6.33;;;1.13;;
34585;SDS011;20816;50.950;11.108;2023-03-24T12:00:25;2.77;;;0.77;;
34585;SDS011;20816;50.950;11.108;2023-03-24T12:03:15;6.40;;;0.70;;
34585;SDS011;20816;50.950;11.108;2023-03-24T12:06:16;3.73;;;0.50;;
34585;SDS011;20816;50.950;11.108;2023-03-24T12:09:09;3.23;;;1.07;;
34585;SDS011;20816;50.950;11.108;2023-03-24T12:17:15;1.13;;;0.60;;
34585;SDS011;20816;50.950;11.108;2023-03-24T12:28:33;0.40;;;0.40;;
34585;SDS011;20816;50.950;11.108;2023-03-24T12:42:44;0.60;;;0.23;;
34585;SDS011;20816;50.950;11.108;2023-03-24T12:45:16;0.13;;;0.10;;
34585;SDS011;20816;50.950;11.108;2023-03-24T12:50:36;0.57;;;0.30;;
34585;SDS011;20816;50.950;11.108;2023-03-24T12:53:31;0.73;;;0.20;;
34585;SDS011;20816;50.950;11.108;2023-03-24T12:56:08;1.67;;;0.40;;
34585;SDS011;20816;50.950;11.108;2023-03-24T12:58:44;1.70;;;0.20;;
34585;SDS011;20816;50.950;11.108;2023-03-24T13:01:18;1.20;;;0.30;;
34585;SDS011;20816;50.950;11.108;2023-03-24T13:03:57;1.77;;;1.10;;
34585;SDS011;20816;50.950;11.108;2023-03-24T13:07:15;1.60;;;0.33;;
34585;SDS011;20816;50.950;11.108;2023-03-24T13:12:52;2.70;;;0.40;;
34585;SDS011;20816;50.950;11.108;2023-03-24T13:15:26;0.43;;;0.20;;
34585;SDS011;20816;50.950;11.108;2023-03-24T13:20:59;1.03;;;0.50;;
34585;SDS011;20816;50.950;11.108;2023-03-24T13:26:31;0.40;;;0.20;;
34585;SDS011;20816;50.950;11.108;2023-03-24T13:29:11;0.50;;;0.30;;
34585;SDS011;20816;50.950;11.108;2023-03-24T13:34:34;0.20;;;0.20;;
34585;SDS011;20816;50.950;11.108;2023-03-24T13:37:09;10.03;;;1.80;;
34585;SDS011;20816;50.950;11.108;2023-03-24T13:39:40;1.13;;;0.40;;
34585;SDS011;20816;50.950;11.108;2023-03-24T13:42:24;0.93;;;0.50;;
34585;SDS011;20816;50.950;11.108;2023-03-24T13:44:59;1.40;;;0.77;;
34585;SDS011;20816;50.950;11.108;2023-03-24T13:47:45;2.80;;;0.37;;
34585;SDS011;20816;50.950;11.108;2023-03-24T13:50:14;0.73;;;0.30;;
34585;SDS011;20816;50.950;11.108;2023-03-24T13:52:43;0.50;;;0.20;;
34585;SDS011;20816;50.950;11.108;2023-03-24T13:55:14;0.60;;;0.20;;
34585;SDS011;20816;50.950;11.108;2023-03-24T13:57:56;0.30;;;0.23;;
34585;SDS011;20816;50.950;11.108;2023-03-24T14:00:33;0.20;;;0.20;;
34585;SDS011;20816;50.950;11.108;2023-03-24T14:03:40;0.57;;;0.20;;
34585;SDS011;20816;50.950;11.108;2023-03-24T14:06:15;0.20;;;0.20;;
34585;SDS011;20816;50.950;11.108;2023-03-24T14:09:04;0.40;;;0.20;;
34585;SDS011;20816;50.950;11.108;2023-03-24T14:14:04;1.80;;;0.40;;
34585;SDS011;20816;50.950;11.108;2023-03-24T14:21:51;0.73;;;0.23;;
34585;SDS011;20816;50.950;11.108;2023-03-24T14:24:32;1.60;;;0.43;;
34585;SDS011;20816;50.950;11.108;2023-03-24T14:27:00;0.20;;;0.20;;
34585;SDS011;20816;50.950;11.108;2023-03-24T14:29:54;0.27;;;0.27;;
34585;SDS011;20816;50.950;11.108;2023-03-24T14:32:27;1.50;;;0.63;;
34585;SDS011;20816;50.950;11.108;2023-03-24T14:34:55;1.60;;;0.40;;
34585;SDS011;20816;50.950;11.108;2023-03-24T14:37:24;1.27;;;0.83;;
34585;SDS011;20816;50.950;11.108;2023-03-24T14:39:53;1.57;;;0.50;;
34585;SDS011;20816;50.950;11.108;2023-03-24T14:47:28;0.57;;;0.50;;
34585;SDS011;20816;50.950;11.108;2023-03-24T14:50:01;1.10;;;0.30;;
34585;SDS011;20816;50.950;11.108;2023-03-24T14:52:43;0.67;;;0.20;;
34585;SDS011;20816;50.950;11.108;2023-03-24T14:55:16;1.53;;;0.60;;
34585;SDS011;20816;50.950;11.108;2023-03-24T14:57:45;4.53;;;0.53;;
34585;SDS011;20816;50.950;11.108;2023-03-24T15:00:20;0.60;;;0.50;;
34585;SDS011;20816;50.950;11.108;2023-03-24T15:02:55;0.45;;;0.30;;
34585;SDS011;20816;50.950;11.108;2023-03-24T15:05:46;1.43;;;0.77;;
34585;SDS011;20816;50.950;11.108;2023-03-24T15:08:19;4.07;;;0.63;;
34585;SDS011;20816;50.950;11.108;2023-03-24T15:13:25;3.27;;;0.67;;
34585;SDS011;20816;50.950;11.108;2023-03-24T15:15:58;1.13;;;0.40;;
34585;SDS011;20816;50.950;11.108;2023-03-24T15:18:26;3.17;;;1.27;;
34585;SDS011;20816;50.950;11.108;2023-03-24T15:20:53;0.90;;;0.50;;
34585;SDS011;20816;50.950;11.108;2023-03-24T15:23:28;3.60;;;0.80;;
34585;SDS011;20816;50.950;11.108;2023-03-24T15:25:56;1.67;;;0.53;;
34585;SDS011;20816;50.950;11.108;2023-03-24T15:28:24;0.47;;;0.40;;
34585;SDS011;20816;50.950;11.108;2023-03-24T15:30:52;0.40;;;0.30;;
34585;SDS011;20816;50.950;11.108;2023-03-24T15:33:21;1.10;;;0.40;;
34585;SDS011;20816;50.950;11.108;2023-03-24T15:35:55;1.13;;;0.30;;
34585;SDS011;20816;50.950;11.108;2023-03-24T15:38:28;1.33;;;0.43;;
34585;SDS011;20816;50.950;11.108;2023-03-24T15:41:08;1.50;;;0.40;;
34585;SDS011;20816;50.950;11.108;2023-03-24T15:43:40;0.80;;;0.70;;
34585;SDS011;20816;50.950;11.108;2023-03-24T15:49:15;2.87;;;0.73;;
34585;SDS011;20816;50.950;11.108;2023-03-24T15:51:53;3.50;;;0.50;;
34585;SDS011;20816;50.950;11.108;2023-03-24T15:54:30;2.33;;;0.53;;
34585;SDS011;20816;50.950;11.108;2023-03-24T15:57:16;4.00;;;0.97;;
34585;SDS011;20816;50.950;11.108;2023-03-24T16:02:29;2.47;;;1.00;;
34585;SDS011;20816;50.950;11.108;2023-03-24T16:05:10;2.10;;;0.50;;
34585;SDS011;20816;50.950;11.108;2023-03-24T16:07:53;2.73;;;0.43;;
34585;SDS011;20816;50.950;11.108;2023-03-24T16:15:46;1.10;;;0.47;;
34585;SDS011;20816;50.950;11.108;2023-03-24T16:18:33;4.83;;;1.80;;
34585;SDS011;20816;50.950;11.108;2023-03-24T16:21:08;2.03;;;1.60;;
34585;SDS011;20816;50.950;11.108;2023-03-24T16:23:44;1.40;;;0.43;;
34585;SDS011;20816;50.950;11.108;2023-03-24T16:28:45;0.87;;;0.40;;
34585;SDS011;20816;50.950;11.108;2023-03-24T16:33:56;5.43;;;1.17;;
34585;SDS011;20816;50.950;11.108;2023-03-24T16:36:23;0.70;;;0.50;;
34585;SDS011;20816;50.950;11.108;2023-03-24T16:38:59;3.33;;;0.87;;
34585;SDS011;20816;50.950;11.108;2023-03-24T16:41:27;1.57;;;1.13;;
34585;SDS011;20816;50.950;11.108;2023-03-24T16:43:54;1.67;;;0.40;;
34585;SDS011;20816;50.950;11.108;2023-03-24T16:49:04;1.60;;;0.50;;
34585;SDS011;20816;50.950;11.108;2023-03-24T16:51:32;0.87;;;0.67;;
34585;SDS011;20816;50.950;11.108;2023-03-24T16:53:59;1.70;;;0.67;;
34585;SDS011;20816;50.950;11.108;2023-03-24T16:56:30;0.20;;;0.20;;
34585;SDS011;20816;50.950;11.108;2023-03-24T16:58:59;0.40;;;0.37;;
34585;SDS011;20816;50.950;11.108;2023-03-24T17:01:33;3.60;;;0.70;;
34585;SDS011;20816;50.950;11.108;2023-03-24T17:04:05;3.73;;;0.40;;
34585;SDS011;20816;50.950;11.108;2023-03-24T17:06:42;3.03;;;0.70;;
34585;SDS011;20816;50.950;11.108;2023-03-24T17:09:10;2.80;;;0.57;;
34585;SDS011;20816;50.950;11.108;2023-03-24T17:11:39;2.67;;;0.80;;
34585;SDS011;20816;50.950;11.108;2023-03-24T17:14:17;3.00;;;0.40;;
34585;SDS011;20816;50.950;11.108;2023-03-24T17:16:44;1.20;;;0.33;;
34585;SDS011;20816;50.950;11.108;2023-03-24T17:19:14;0.60;;;0.40;;
34585;SDS011;20816;50.950;11.108;2023-03-24T17:21:43;1.03;;;0.40;;
34585;SDS011;20816;50.950;11.108;2023-03-24T17:24:18;0.60;;;0.50;;
34585;SDS011;20816;50.950;11.108;2023-03-24T17:26:45;6.20;;;0.63;;
34585;SDS011;20816;50.950;11.108;2023-03-24T17:29:12;2.03;;;1.00;;
34585;SDS011;20816;50.950;11.108;2023-03-24T17:31:39;0.47;;;0.43;;
34585;SDS011;20816;50.950;11.108;2023-03-24T17:34:10;2.40;;;0.57;;
34585;SDS011;20816;50.950;11.108;2023-03-24T17:36:47;1.87;;;0.50;;
34585;SDS011;20816;50.950;11.108;2023-03-24T17:39:16;2.43;;;0.50;;
34585;SDS011;20816;50.950;11.108;2023-03-24T17:41:46;0.77;;;0.50;;
34585;SDS011;20816;50.950;11.108;2023-03-24T17:44:21;1.53;;;0.43;;